sensor_id;sensor_type;location;lat;lon;timestamp;P1;durP1;ratioP1;P2;durP2;ratioP2
8007;SDS011;4049;49.468;11.200;2023-06-10T00:00:49;6.50;;;5.30;;
8007;SDS011;4049;49.468;11.200;2023-06-10T00:03:16;5.77;;;4.93;;
8007;SDS011;4049;49.468;11.200;2023-06-10T00:05:43;5.93;;;5.00;;
8007;SDS011;4049;49.468;11.200;2023-06-10T00:08:10;7.70;;;5.03;;
8007;SDS011;4049;49.468;11.200;2023-06-10T00:10:37;5.70;;;4.70;;
8007;SDS011;4049;49.468;11.200;2023-06-10T00:13:05;5.50;;;4.37;;
8007;SDS011;4049;49.468;11.200;2023-06-10T00:15:34;12.43;;;4.87;;
8007;SDS011;4049;49.468;11.200;2023-06-10T00:18:03;5.47;;;4.80;;
8007;SDS011;4049;49.468;11.200;2023-06-10T00:20:30;6.03;;;5.20;;
8007;SDS011;4049;49.468;11.200;2023-06-10T00:22:57;7.27;;;5.10;;
8007;SDS011;4049;49.468;11.200;2023-06-10T00:25:26;7.60;;;5.80;;
8007;SDS011;4049;49.468;11.200;2023-06-10T00:27:53;6.20;;;5.20;;
8007;SDS011;4049;49.468;11.200;2023-06-10T00:30:21;8.23;;;5.67;;
8007;SDS011;4049;49.468;11.200;2023-06-10T00:32:48;8.23;;;5.47;;
8007;SDS011;4049;49.468;11.200;2023-06-10T00:35:16;7.90;;;5.07;;
8007;SDS011;4049;49.468;11.200;2023-06-10T00:37:43;7.77;;;5.63;;
8007;SDS011;4049;49.468;11.200;2023-06-10T00:40:10;6.47;;;5.17;;
8007;SDS011;4049;49.468;11.200;2023-06-10T00:42:38;5.83;;;4.93;;
8007;SDS011;4049;49.468;11.200;2023-06-10T00:45:05;6.23;;;5.23;;
8007;SDS011;4049;49.468;11.200;2023-06-10T00:47:32;7.83;;;5.23;;
8007;SDS011;4049;49.468;11.200;2023-06-10T00:50:00;6.43;;;5.20;;
8007;SDS011;4049;49.468;11.200;2023-06-10T00:52:30;6.10;;;5.07;;
8007;SDS011;4049;49.468;11.200;2023-06-10T00:54:57;7.87;;;5.53;;
8007;SDS011;4049;49.468;11.200;2023-06-10T00:57:24;7.23;;;5.33;;
8007;SDS011;4049;49.468;11.200;2023-06-10T00:59:51;5.53;;;4.67;;
8007;SDS011;4049;49.468;11.200;2023-06-10T01:02:18;7.67;;;5.60;;
8007;SDS011;4049;49.468;11.200;2023-06-10T01:04:45;5.87;;;5.03;;
8007;SDS011;4049;49.468;11.200;2023-06-10T01:07:14;9.30;;;5.40;;
8007;SDS011;4049;49.468;11.200;2023-06-10T01:09:52;7.43;;;5.77;;
8007;SDS011;4049;49.468;11.200;2023-06-10T01:12:26;7.63;;;5.97;;
8007;SDS011;4049;49.468;11.200;2023-06-10T01:14:59;6.87;;;5.70;;
8007;SDS011;4049;49.468;11.200;2023-06-10T01:17:28;6.67;;;5.80;;
8007;SDS011;4049;49.468;11.200;2023-06-10T01:19:55;9.10;;;5.90;;
8007;SDS011;4049;49.468;11.200;2023-06-10T01:22:25;7.00;;;5.30;;
8007;SDS011;4049;49.468;11.200;2023-06-10T01:24:53;8.17;;;5.57;;
8007;SDS011;4049;49.468;11.200;2023-06-10T01:27:23;7.63;;;5.80;;
8007;SDS011;4049;49.468;11.200;2023-06-10T01:29:54;7.33;;;4.97;;
8007;SDS011;4049;49.468;11.200;2023-06-10T01:32:29;7.70;;;6.37;;
8007;SDS011;4049;49.468;11.200;2023-06-10T01:35:01;9.30;;;5.80;;
8007;SDS011;4049;49.468;11.200;2023-06-10T01:37:30;8.03;;;5.43;;
8007;SDS011;4049;49.468;11.200;2023-06-10T01:39:58;6.67;;;5.50;;
8007;SDS011;4049;49.468;11.200;2023-06-10T01:42:26;7.27;;;6.13;;
8007;SDS011;4049;49.468;11.200;2023-06-10T01:44:54;7.63;;;5.97;;
8007;SDS011;4049;49.468;11.200;2023-06-10T01:47:21;7.73;;;5.47;;
8007;SDS011;4049;49.468;11.200;2023-06-10T01:49:48;6.57;;;5.73;;
8007;SDS011;4049;49.468;11.200;2023-06-10T01:52:15;6.07;;;5.47;;
8007;SDS011;4049;49.468;11.200;2023-06-10T01:54:43;6.73;;;5.50;;
8007;SDS011;4049;49.468;11.200;2023-06-10T01:57:10;10.70;;;7.03;;
8007;SDS011;4049;49.468;11.200;2023-06-10T01:59:37;8.53;;;6.20;;
8007;SDS011;4049;49.468;11.200;2023-06-10T02:02:04;6.87;;;5.93;;
8007;SDS011;4049;49.468;11.200;2023-06-10T02:04:31;7.67;;;5.80;;
8007;SDS011;4049;49.468;11.200;2023-06-10T02:06:58;8.17;;;6.37;;
8007;SDS011;4049;49.468;11.200;2023-06-10T02:09:29;7.67;;;6.10;;
8007;SDS011;4049;49.468;11.200;2023-06-10T02:11:57;8.67;;;6.03;;
8007;SDS011;4049;49.468;11.200;2023-06-10T02:14:24;9.03;;;5.70;;
8007;SDS011;4049;49.468;11.200;2023-06-10T02:16:51;9.67;;;6.47;;
8007;SDS011;4049;49.468;11.200;2023-06-10T02:19:21;6.33;;;5.63;;
8007;SDS011;4049;49.468;11.200;2023-06-10T02:21:48;7.90;;;5.93;;
8007;SDS011;4049;49.468;11.200;2023-06-10T02:24:15;6.93;;;5.70;;
8007;SDS011;4049;49.468;11.200;2023-06-10T02:26:42;7.00;;;5.67;;
8007;SDS011;4049;49.468;11.200;2023-06-10T02:29:11;6.60;;;5.77;;
8007;SDS011;4049;49.468;11.200;2023-06-10T02:31:38;8.03;;;6.20;;
8007;SDS011;4049;49.468;11.200;2023-06-10T02:34:06;7.53;;;6.00;;
8007;SDS011;4049;49.468;11.200;2023-06-10T02:36:32;6.97;;;5.37;;
8007;SDS011;4049;49.468;11.200;2023-06-10T02:39:00;8.17;;;6.37;;
8007;SDS011;4049;49.468;11.200;2023-06-10T02:41:27;8.30;;;5.90;;
8007;SDS011;4049;49.468;11.200;2023-06-10T02:43:54;10.43;;;7.20;;
8007;SDS011;4049;49.468;11.200;2023-06-10T02:46:22;8.40;;;6.20;;
8007;SDS011;4049;49.468;11.200;2023-06-10T02:48:49;9.37;;;6.10;;
8007;SDS011;4049;49.468;11.200;2023-06-10T02:51:16;6.60;;;5.53;;
8007;SDS011;4049;49.468;11.200;2023-06-10T02:53:43;7.43;;;5.90;;
8007;SDS011;4049;49.468;11.200;2023-06-10T02:56:10;8.57;;;6.43;;
8007;SDS011;4049;49.468;11.200;2023-06-10T02:58:37;7.37;;;6.20;;
8007;SDS011;4049;49.468;11.200;2023-06-10T03:01:04;8.73;;;6.27;;
8007;SDS011;4049;49.468;11.200;2023-06-10T03:03:32;8.47;;;6.30;;
8007;SDS011;4049;49.468;11.200;2023-06-10T03:06:00;7.90;;;6.10;;
8007;SDS011;4049;49.468;11.200;2023-06-10T03:08:27;9.40;;;6.73;;
8007;SDS011;4049;49.468;11.200;2023-06-10T03:10:54;9.13;;;6.30;;
8007;SDS011;4049;49.468;11.200;2023-06-10T03:13:21;8.53;;;6.70;;
8007;SDS011;4049;49.468;11.200;2023-06-10T03:15:49;8.73;;;6.67;;
8007;SDS011;4049;49.468;11.200;2023-06-10T03:18:16;8.60;;;6.30;;
8007;SDS011;4049;49.468;11.200;2023-06-10T03:20:44;8.30;;;6.10;;
8007;SDS011;4049;49.468;11.200;2023-06-10T03:23:11;8.80;;;6.50;;
8007;SDS011;4049;49.468;11.200;2023-06-10T03:25:38;9.03;;;6.37;;
8007;SDS011;4049;49.468;11.200;2023-06-10T03:28:04;6.73;;;5.97;;
8007;SDS011;4049;49.468;11.200;2023-06-10T03:30:31;8.90;;;6.53;;
8007;SDS011;4049;49.468;11.200;2023-06-10T03:32:58;8.87;;;6.00;;
8007;SDS011;4049;49.468;11.200;2023-06-10T03:35:25;9.50;;;6.50;;
8007;SDS011;4049;49.468;11.200;2023-06-10T03:37:54;8.60;;;6.23;;
8007;SDS011;4049;49.468;11.200;2023-06-10T03:40:21;7.80;;;5.80;;
8007;SDS011;4049;49.468;11.200;2023-06-10T03:42:47;7.80;;;6.17;;
8007;SDS011;4049;49.468;11.200;2023-06-10T03:45:14;8.47;;;6.40;;
8007;SDS011;4049;49.468;11.200;2023-06-10T03:47:41;7.97;;;6.37;;
8007;SDS011;4049;49.468;11.200;2023-06-10T03:50:08;12.07;;;6.47;;
8007;SDS011;4049;49.468;11.200;2023-06-10T03:52:37;9.90;;;6.30;;
8007;SDS011;4049;49.468;11.200;2023-06-10T03:55:06;8.70;;;6.17;;
8007;SDS011;4049;49.468;11.200;2023-06-10T03:57:34;8.97;;;6.80;;
8007;SDS011;4049;49.468;11.200;2023-06-10T04:00:00;7.17;;;5.97;;
8007;SDS011;4049;49.468;11.200;2023-06-10T04:02:31;8.83;;;6.90;;
8007;SDS011;4049;49.468;11.200;2023-06-10T04:04:59;8.23;;;6.17;;
8007;SDS011;4049;49.468;11.200;2023-06-10T04:07:26;9.37;;;6.70;;
8007;SDS011;4049;49.468;11.200;2023-06-10T04:09:53;9.33;;;6.70;;
8007;SDS011;4049;49.468;11.200;2023-06-10T04:12:21;8.97;;;6.30;;
8007;SDS011;4049;49.468;11.200;2023-06-10T04:14:48;8.20;;;6.03;;
8007;SDS011;4049;49.468;11.200;2023-06-10T04:17:16;8.87;;;6.50;;
8007;SDS011;4049;49.468;11.200;2023-06-10T04:19:43;10.87;;;6.60;;
8007;SDS011;4049;49.468;11.200;2023-06-10T04:22:10;9.13;;;6.40;;
8007;SDS011;4049;49.468;11.200;2023-06-10T04:24:37;10.47;;;6.63;;
8007;SDS011;4049;49.468;11.200;2023-06-10T04:27:04;7.53;;;6.03;;
8007;SDS011;4049;49.468;11.200;2023-06-10T04:29:33;9.03;;;6.23;;
8007;SDS011;4049;49.468;11.200;2023-06-10T04:32:00;9.77;;;6.07;;
8007;SDS011;4049;49.468;11.200;2023-06-10T04:34:27;9.80;;;6.07;;
8007;SDS011;4049;49.468;11.200;2023-06-10T04:36:54;8.43;;;6.80;;
8007;SDS011;4049;49.468;11.200;2023-06-10T04:39:20;8.03;;;6.47;;
8007;SDS011;4049;49.468;11.200;2023-06-10T04:41:48;8.20;;;6.70;;
8007;SDS011;4049;49.468;11.200;2023-06-10T04:44:15;8.10;;;6.50;;
8007;SDS011;4049;49.468;11.200;2023-06-10T04:46:43;9.80;;;6.50;;
8007;SDS011;4049;49.468;11.200;2023-06-10T04:49:10;9.57;;;6.53;;
8007;SDS011;4049;49.468;11.200;2023-06-10T04:51:39;8.03;;;6.43;;
8007;SDS011;4049;49.468;11.200;2023-06-10T04:54:06;8.40;;;7.00;;
8007;SDS011;4049;49.468;11.200;2023-06-10T04:56:33;9.20;;;6.63;;
8007;SDS011;4049;49.468;11.200;2023-06-10T04:58:59;7.73;;;6.40;;
8007;SDS011;4049;49.468;11.200;2023-06-10T05:01:27;8.27;;;6.10;;
8007;SDS011;4049;49.468;11.200;2023-06-10T05:03:55;7.57;;;6.40;;
8007;SDS011;4049;49.468;11.200;2023-06-10T05:06:21;9.97;;;7.00;;
8007;SDS011;4049;49.468;11.200;2023-06-10T05:08:48;8.77;;;6.80;;
8007;SDS011;4049;49.468;11.200;2023-06-10T05:11:15;8.00;;;6.70;;
8007;SDS011;4049;49.468;11.200;2023-06-10T05:13:42;8.13;;;6.30;;
8007;SDS011;4049;49.468;11.200;2023-06-10T05:16:09;9.47;;;7.23;;
8007;SDS011;4049;49.468;11.200;2023-06-10T05:18:36;8.97;;;6.63;;
8007;SDS011;4049;49.468;11.200;2023-06-10T05:21:04;8.47;;;6.37;;
8007;SDS011;4049;49.468;11.200;2023-06-10T05:23:31;8.03;;;6.03;;
8007;SDS011;4049;49.468;11.200;2023-06-10T05:25:58;8.13;;;6.53;;
8007;SDS011;4049;49.468;11.200;2023-06-10T05:28:25;10.23;;;7.63;;
8007;SDS011;4049;49.468;11.200;2023-06-10T05:30:51;7.90;;;5.93;;
8007;SDS011;4049;49.468;11.200;2023-06-10T05:33:18;7.73;;;6.60;;
8007;SDS011;4049;49.468;11.200;2023-06-10T05:35:45;6.80;;;5.93;;
8007;SDS011;4049;49.468;11.200;2023-06-10T05:38:13;8.57;;;6.60;;
8007;SDS011;4049;49.468;11.200;2023-06-10T05:40:40;7.67;;;5.93;;
8007;SDS011;4049;49.468;11.200;2023-06-10T05:43:07;8.30;;;6.87;;
8007;SDS011;4049;49.468;11.200;2023-06-10T05:45:34;8.10;;;6.27;;
8007;SDS011;4049;49.468;11.200;2023-06-10T05:48:01;7.80;;;5.93;;
8007;SDS011;4049;49.468;11.200;2023-06-10T05:50:28;8.67;;;6.10;;
8007;SDS011;4049;49.468;11.200;2023-06-10T05:52:55;6.70;;;5.77;;
8007;SDS011;4049;49.468;11.200;2023-06-10T05:55:24;8.17;;;6.17;;
8007;SDS011;4049;49.468;11.200;2023-06-10T05:57:57;6.77;;;5.87;;
8007;SDS011;4049;49.468;11.200;2023-06-10T06:00:25;7.57;;;5.93;;
8007;SDS011;4049;49.468;11.200;2023-06-10T06:02:52;6.77;;;5.70;;
8007;SDS011;4049;49.468;11.200;2023-06-10T06:05:20;7.80;;;5.63;;
8007;SDS011;4049;49.468;11.200;2023-06-10T06:07:47;7.07;;;5.57;;
8007;SDS011;4049;49.468;11.200;2023-06-10T06:10:14;7.40;;;5.90;;
8007;SDS011;4049;49.468;11.200;2023-06-10T06:12:44;7.80;;;6.63;;
8007;SDS011;4049;49.468;11.200;2023-06-10T06:15:10;7.47;;;6.13;;
8007;SDS011;4049;49.468;11.200;2023-06-10T06:17:37;7.47;;;6.27;;
8007;SDS011;4049;49.468;11.200;2023-06-10T06:20:05;7.47;;;5.83;;
8007;SDS011;4049;49.468;11.200;2023-06-10T06:22:32;7.20;;;6.17;;
8007;SDS011;4049;49.468;11.200;2023-06-10T06:24:59;6.70;;;6.00;;
8007;SDS011;4049;49.468;11.200;2023-06-10T06:27:26;7.10;;;6.33;;
8007;SDS011;4049;49.468;11.200;2023-06-10T06:29:55;8.37;;;6.30;;
8007;SDS011;4049;49.468;11.200;2023-06-10T06:32:22;7.00;;;5.63;;
8007;SDS011;4049;49.468;11.200;2023-06-10T06:34:51;7.53;;;6.03;;
8007;SDS011;4049;49.468;11.200;2023-06-10T06:37:19;7.83;;;5.87;;
8007;SDS011;4049;49.468;11.200;2023-06-10T06:39:47;7.17;;;5.83;;
8007;SDS011;4049;49.468;11.200;2023-06-10T06:42:14;9.57;;;6.03;;
8007;SDS011;4049;49.468;11.200;2023-06-10T06:44:41;7.23;;;5.57;;
8007;SDS011;4049;49.468;11.200;2023-06-10T06:47:09;7.67;;;6.10;;
8007;SDS011;4049;49.468;11.200;2023-06-10T06:49:36;6.63;;;5.60;;
8007;SDS011;4049;49.468;11.200;2023-06-10T06:52:03;6.60;;;5.80;;
8007;SDS011;4049;49.468;11.200;2023-06-10T06:54:30;6.20;;;5.60;;
8007;SDS011;4049;49.468;11.200;2023-06-10T06:56:57;7.17;;;5.87;;
8007;SDS011;4049;49.468;11.200;2023-06-10T06:59:24;6.40;;;5.70;;
8007;SDS011;4049;49.468;11.200;2023-06-10T07:01:51;10.63;;;6.27;;
8007;SDS011;4049;49.468;11.200;2023-06-10T07:04:20;8.43;;;6.13;;
8007;SDS011;4049;49.468;11.200;2023-06-10T07:06:47;9.27;;;5.63;;
8007;SDS011;4049;49.468;11.200;2023-06-10T07:09:14;6.83;;;5.87;;
8007;SDS011;4049;49.468;11.200;2023-06-10T07:11:41;7.47;;;6.30;;
8007;SDS011;4049;49.468;11.200;2023-06-10T07:14:08;7.30;;;6.07;;
8007;SDS011;4049;49.468;11.200;2023-06-10T07:16:35;7.00;;;6.00;;
8007;SDS011;4049;49.468;11.200;2023-06-10T07:19:01;7.83;;;6.03;;
8007;SDS011;4049;49.468;11.200;2023-06-10T07:21:30;6.10;;;5.50;;
8007;SDS011;4049;49.468;11.200;2023-06-10T07:23:58;6.77;;;5.83;;
8007;SDS011;4049;49.468;11.200;2023-06-10T07:26:24;7.33;;;6.00;;
8007;SDS011;4049;49.468;11.200;2023-06-10T07:28:51;6.93;;;6.07;;
8007;SDS011;4049;49.468;11.200;2023-06-10T07:31:18;9.23;;;6.40;;
8007;SDS011;4049;49.468;11.200;2023-06-10T07:33:46;7.03;;;6.03;;
8007;SDS011;4049;49.468;11.200;2023-06-10T07:36:13;6.67;;;6.00;;
8007;SDS011;4049;49.468;11.200;2023-06-10T07:38:41;7.60;;;5.83;;
8007;SDS011;4049;49.468;11.200;2023-06-10T07:41:08;6.47;;;5.43;;
8007;SDS011;4049;49.468;11.200;2023-06-10T07:43:36;6.00;;;5.40;;
8007;SDS011;4049;49.468;11.200;2023-06-10T07:46:03;6.37;;;5.67;;
8007;SDS011;4049;49.468;11.200;2023-06-10T07:48:31;5.80;;;5.20;;
8007;SDS011;4049;49.468;11.200;2023-06-10T07:50:58;7.73;;;5.67;;
8007;SDS011;4049;49.468;11.200;2023-06-10T07:53:25;6.53;;;5.30;;
8007;SDS011;4049;49.468;11.200;2023-06-10T07:55:53;5.63;;;5.03;;
8007;SDS011;4049;49.468;11.200;2023-06-10T07:58:20;5.73;;;5.13;;
8007;SDS011;4049;49.468;11.200;2023-06-10T08:00:47;5.40;;;4.80;;
8007;SDS011;4049;49.468;11.200;2023-06-10T08:03:14;6.33;;;5.00;;
8007;SDS011;4049;49.468;11.200;2023-06-10T08:05:41;5.30;;;4.80;;
8007;SDS011;4049;49.468;11.200;2023-06-10T08:08:08;5.53;;;4.70;;
8007;SDS011;4049;49.468;11.200;2023-06-10T08:10:35;6.37;;;4.57;;
8007;SDS011;4049;49.468;11.200;2023-06-10T08:13:03;4.83;;;4.00;;
8007;SDS011;4049;49.468;11.200;2023-06-10T08:15:30;4.77;;;4.33;;
8007;SDS011;4049;49.468;11.200;2023-06-10T08:17:57;4.90;;;4.40;;
8007;SDS011;4049;49.468;11.200;2023-06-10T08:20:23;4.97;;;4.47;;
8007;SDS011;4049;49.468;11.200;2023-06-10T08:22:53;4.70;;;4.30;;
8007;SDS011;4049;49.468;11.200;2023-06-10T08:25:20;4.95;;;4.00;;
8007;SDS011;4049;49.468;11.200;2023-06-10T08:27:47;4.18;;;3.58;;
8007;SDS011;4049;49.468;11.200;2023-06-10T08:30:17;4.35;;;3.95;;
8007;SDS011;4049;49.468;11.200;2023-06-10T08:32:44;4.68;;;4.18;;
8007;SDS011;4049;49.468;11.200;2023-06-10T08:35:11;4.30;;;3.90;;
8007;SDS011;4049;49.468;11.200;2023-06-10T08:37:37;5.97;;;4.22;;
8007;SDS011;4049;49.468;11.200;2023-06-10T08:40:05;4.47;;;4.07;;
8007;SDS011;4049;49.468;11.200;2023-06-10T08:42:33;4.10;;;3.70;;
8007;SDS011;4049;49.468;11.200;2023-06-10T08:45:05;4.47;;;4.07;;
8007;SDS011;4049;49.468;11.200;2023-06-10T08:47:39;4.13;;;3.72;;
8007;SDS011;4049;49.468;11.200;2023-06-10T08:50:10;5.00;;;4.28;;
8007;SDS011;4049;49.468;11.200;2023-06-10T08:52:37;4.30;;;3.88;;
8007;SDS011;4049;49.468;11.200;2023-06-10T08:55:10;4.55;;;4.13;;
8007;SDS011;4049;49.468;11.200;2023-06-10T08:57:40;5.55;;;4.20;;
8007;SDS011;4049;49.468;11.200;2023-06-10T09:00:10;4.95;;;4.10;;
8007;SDS011;4049;49.468;11.200;2023-06-10T09:02:39;5.15;;;4.65;;
8007;SDS011;4049;49.468;11.200;2023-06-10T09:05:07;6.03;;;4.85;;
8007;SDS011;4049;49.468;11.200;2023-06-10T09:07:35;5.30;;;4.80;;
8007;SDS011;4049;49.468;11.200;2023-06-10T09:10:02;5.32;;;4.65;;
8007;SDS011;4049;49.468;11.200;2023-06-10T09:12:32;5.05;;;4.43;;
8007;SDS011;4049;49.468;11.200;2023-06-10T09:15:00;5.32;;;4.32;;
8007;SDS011;4049;49.468;11.200;2023-06-10T09:17:27;5.93;;;5.07;;
8007;SDS011;4049;49.468;11.200;2023-06-10T09:19:55;4.78;;;4.32;;
8007;SDS011;4049;49.468;11.200;2023-06-10T09:22:22;6.30;;;4.90;;
8007;SDS011;4049;49.468;11.200;2023-06-10T09:24:51;5.70;;;4.65;;
8007;SDS011;4049;49.468;11.200;2023-06-10T09:27:29;4.72;;;4.32;;
8007;SDS011;4049;49.468;11.200;2023-06-10T09:29:57;5.63;;;4.57;;
8007;SDS011;4049;49.468;11.200;2023-06-10T09:32:24;5.85;;;5.20;;
8007;SDS011;4049;49.468;11.200;2023-06-10T09:34:51;5.72;;;4.97;;
8007;SDS011;4049;49.468;11.200;2023-06-10T09:37:22;4.35;;;3.95;;
8007;SDS011;4049;49.468;11.200;2023-06-10T09:40:00;4.95;;;4.45;;
8007;SDS011;4049;49.468;11.200;2023-06-10T09:42:31;4.90;;;4.50;;
8007;SDS011;4049;49.468;11.200;2023-06-10T09:44:59;5.28;;;4.40;;
8007;SDS011;4049;49.468;11.200;2023-06-10T09:47:26;5.30;;;4.45;;
8007;SDS011;4049;49.468;11.200;2023-06-10T09:49:53;4.70;;;4.30;;
8007;SDS011;4049;49.468;11.200;2023-06-10T09:52:24;5.13;;;4.63;;
8007;SDS011;4049;49.468;11.200;2023-06-10T09:54:53;4.68;;;4.20;;
8007;SDS011;4049;49.468;11.200;2023-06-10T09:57:24;6.13;;;4.40;;
8007;SDS011;4049;49.468;11.200;2023-06-10T09:59:52;4.97;;;4.50;;
8007;SDS011;4049;49.468;11.200;2023-06-10T10:02:19;4.80;;;4.40;;
8007;SDS011;4049;49.468;11.200;2023-06-10T10:04:46;4.90;;;4.50;;
8007;SDS011;4049;49.468;11.200;2023-06-10T10:07:13;5.28;;;4.78;;
8007;SDS011;4049;49.468;11.200;2023-06-10T10:09:42;4.85;;;4.28;;
8007;SDS011;4049;49.468;11.200;2023-06-10T10:12:09;6.80;;;4.28;;
8007;SDS011;4049;49.468;11.200;2023-06-10T10:14:37;4.38;;;3.97;;
8007;SDS011;4049;49.468;11.200;2023-06-10T10:17:06;6.32;;;4.43;;
8007;SDS011;4049;49.468;11.200;2023-06-10T10:19:40;4.40;;;4.00;;
8007;SDS011;4049;49.468;11.200;2023-06-10T10:22:15;4.97;;;4.00;;
8007;SDS011;4049;49.468;11.200;2023-06-10T10:24:52;4.93;;;4.43;;
8007;SDS011;4049;49.468;11.200;2023-06-10T10:27:36;5.78;;;4.55;;
8007;SDS011;4049;49.468;11.200;2023-06-10T10:30:07;5.43;;;4.32;;
8007;SDS011;4049;49.468;11.200;2023-06-10T10:32:38;5.38;;;4.40;;
8007;SDS011;4049;49.468;11.200;2023-06-10T10:35:12;4.50;;;4.10;;
8007;SDS011;4049;49.468;11.200;2023-06-10T10:37:42;4.55;;;4.00;;
8007;SDS011;4049;49.468;11.200;2023-06-10T10:40:11;4.15;;;3.85;;
8007;SDS011;4049;49.468;11.200;2023-06-10T10:42:39;4.55;;;4.15;;
8007;SDS011;4049;49.468;11.200;2023-06-10T10:45:07;5.03;;;4.55;;
8007;SDS011;4049;49.468;11.200;2023-06-10T10:47:34;4.70;;;4.30;;
8007;SDS011;4049;49.468;11.200;2023-06-10T10:50:04;4.45;;;4.05;;
8007;SDS011;4049;49.468;11.200;2023-06-10T10:52:46;4.97;;;4.47;;
8007;SDS011;4049;49.468;11.200;2023-06-10T10:55:19;5.03;;;4.20;;
8007;SDS011;4049;49.468;11.200;2023-06-10T10:57:53;4.38;;;3.97;;
8007;SDS011;4049;49.468;11.200;2023-06-10T11:00:25;4.30;;;3.90;;
8007;SDS011;4049;49.468;11.200;2023-06-10T11:02:54;4.60;;;4.20;;
8007;SDS011;4049;49.468;11.200;2023-06-10T11:05:31;4.80;;;4.32;;
8007;SDS011;4049;49.468;11.200;2023-06-10T11:08:01;4.80;;;4.40;;
8007;SDS011;4049;49.468;11.200;2023-06-10T11:10:30;4.90;;;4.40;;
8007;SDS011;4049;49.468;11.200;2023-06-10T11:12:58;4.80;;;4.30;;
8007;SDS011;4049;49.468;11.200;2023-06-10T11:15:25;4.65;;;4.25;;
8007;SDS011;4049;49.468;11.200;2023-06-10T11:18:06;4.30;;;3.90;;
8007;SDS011;4049;49.468;11.200;2023-06-10T11:23:33;4.78;;;3.78;;
8007;SDS011;4049;49.468;11.200;2023-06-10T11:26:12;3.80;;;3.50;;
8007;SDS011;4049;49.468;11.200;2023-06-10T11:34:23;4.00;;;3.55;;
8007;SDS011;4049;49.468;11.200;2023-06-10T11:36:52;4.00;;;3.50;;
8007;SDS011;4049;49.468;11.200;2023-06-10T11:39:20;4.13;;;3.42;;
8007;SDS011;4049;49.468;11.200;2023-06-10T11:41:49;3.70;;;3.40;;
8007;SDS011;4049;49.468;11.200;2023-06-10T11:44:17;3.60;;;3.20;;
8007;SDS011;4049;49.468;11.200;2023-06-10T11:46:44;3.58;;;3.28;;
8007;SDS011;4049;49.468;11.200;2023-06-10T11:49:11;4.35;;;3.90;;
8007;SDS011;4049;49.468;11.200;2023-06-10T11:51:38;4.13;;;3.63;;
8007;SDS011;4049;49.468;11.200;2023-06-10T11:54:13;3.90;;;3.50;;
8007;SDS011;4049;49.468;11.200;2023-06-10T11:56:41;4.22;;;3.50;;
8007;SDS011;4049;49.468;11.200;2023-06-10T11:59:09;4.03;;;3.63;;
8007;SDS011;4049;49.468;11.200;2023-06-10T12:01:36;5.65;;;3.53;;
8007;SDS011;4049;49.468;11.200;2023-06-10T12:04:05;3.58;;;3.28;;
8007;SDS011;4049;49.468;11.200;2023-06-10T12:06:43;4.07;;;3.78;;
8007;SDS011;4049;49.468;11.200;2023-06-10T12:09:18;4.00;;;3.40;;
8007;SDS011;4049;49.468;11.200;2023-06-10T12:11:48;3.85;;;3.55;;
8007;SDS011;4049;49.468;11.200;2023-06-10T12:17:22;3.50;;;3.20;;
8007;SDS011;4049;49.468;11.200;2023-06-10T12:19:50;4.07;;;3.67;;
8007;SDS011;4049;49.468;11.200;2023-06-10T12:22:17;3.70;;;3.40;;
8007;SDS011;4049;49.468;11.200;2023-06-10T12:24:45;3.60;;;3.30;;
8007;SDS011;4049;49.468;11.200;2023-06-10T12:27:24;4.35;;;3.53;;
8007;SDS011;4049;49.468;11.200;2023-06-10T12:29:55;4.13;;;3.47;;
8007;SDS011;4049;49.468;11.200;2023-06-10T12:32:34;4.10;;;3.30;;
8007;SDS011;4049;49.468;11.200;2023-06-10T12:35:02;3.67;;;3.33;;
8007;SDS011;4049;49.468;11.200;2023-06-10T12:37:30;4.00;;;3.65;;
8007;SDS011;4049;49.468;11.200;2023-06-10T12:39:59;3.70;;;3.28;;
8007;SDS011;4049;49.468;11.200;2023-06-10T12:42:27;3.55;;;3.22;;
8007;SDS011;4049;49.468;11.200;2023-06-10T12:44:56;4.95;;;3.38;;
8007;SDS011;4049;49.468;11.200;2023-06-10T12:47:29;3.60;;;3.30;;
8007;SDS011;4049;49.468;11.200;2023-06-10T12:49:58;3.63;;;3.33;;
8007;SDS011;4049;49.468;11.200;2023-06-10T12:52:24;2.97;;;2.78;;
8007;SDS011;4049;49.468;11.200;2023-06-10T12:54:52;3.28;;;3.08;;
8007;SDS011;4049;49.468;11.200;2023-06-10T12:57:19;5.60;;;2.90;;
8007;SDS011;4049;49.468;11.200;2023-06-10T12:59:46;3.78;;;3.08;;
8007;SDS011;4049;49.468;11.200;2023-06-10T13:02:18;3.53;;;3.22;;
8007;SDS011;4049;49.468;11.200;2023-06-10T13:04:48;3.40;;;3.10;;
8007;SDS011;4049;49.468;11.200;2023-06-10T13:07:15;3.00;;;2.80;;
8007;SDS011;4049;49.468;11.200;2023-06-10T13:09:42;3.67;;;3.38;;
8007;SDS011;4049;49.468;11.200;2023-06-10T13:12:10;2.80;;;2.60;;
8007;SDS011;4049;49.468;11.200;2023-06-10T13:14:37;2.97;;;2.78;;
8007;SDS011;4049;49.468;11.200;2023-06-10T13:17:04;2.92;;;2.72;;
8007;SDS011;4049;49.468;11.200;2023-06-10T13:19:33;3.05;;;2.75;;
8007;SDS011;4049;49.468;11.200;2023-06-10T13:22:00;2.90;;;2.70;;
8007;SDS011;4049;49.468;11.200;2023-06-10T13:24:27;3.47;;;3.17;;
8007;SDS011;4049;49.468;11.200;2023-06-10T13:26:54;3.55;;;2.92;;
8007;SDS011;4049;49.468;11.200;2023-06-10T13:29:21;2.97;;;2.67;;
8007;SDS011;4049;49.468;11.200;2023-06-10T13:31:48;3.13;;;2.92;;
8007;SDS011;4049;49.468;11.200;2023-06-10T13:34:15;3.35;;;3.05;;
8007;SDS011;4049;49.468;11.200;2023-06-10T13:36:43;2.78;;;2.58;;
8007;SDS011;4049;49.468;11.200;2023-06-10T13:39:10;3.05;;;2.78;;
8007;SDS011;4049;49.468;11.200;2023-06-10T13:41:38;3.15;;;2.85;;
8007;SDS011;4049;49.468;11.200;2023-06-10T13:44:06;3.10;;;2.80;;
8007;SDS011;4049;49.468;11.200;2023-06-10T13:46:33;3.92;;;2.95;;
8007;SDS011;4049;49.468;11.200;2023-06-10T13:49:00;2.88;;;2.67;;
8007;SDS011;4049;49.468;11.200;2023-06-10T13:51:27;3.15;;;2.80;;
8007;SDS011;4049;49.468;11.200;2023-06-10T13:53:55;3.40;;;3.08;;
8007;SDS011;4049;49.468;11.200;2023-06-10T13:56:22;2.97;;;2.78;;
8007;SDS011;4049;49.468;11.200;2023-06-10T13:58:49;3.40;;;2.60;;
8007;SDS011;4049;49.468;11.200;2023-06-10T14:01:15;2.97;;;2.78;;
8007;SDS011;4049;49.468;11.200;2023-06-10T14:03:42;2.60;;;2.40;;
8007;SDS011;4049;49.468;11.200;2023-06-10T14:06:09;3.00;;;2.65;;
8007;SDS011;4049;49.468;11.200;2023-06-10T14:08:43;2.65;;;2.42;;
8007;SDS011;4049;49.468;11.200;2023-06-10T14:11:11;2.75;;;2.53;;
8007;SDS011;4049;49.468;11.200;2023-06-10T14:13:38;2.88;;;2.58;;
8007;SDS011;4049;49.468;11.200;2023-06-10T14:16:05;2.97;;;2.67;;
8007;SDS011;4049;49.468;11.200;2023-06-10T14:18:32;3.30;;;2.60;;
8007;SDS011;4049;49.468;11.200;2023-06-10T14:20:59;4.55;;;2.63;;
8007;SDS011;4049;49.468;11.200;2023-06-10T14:23:26;2.88;;;2.50;;
8007;SDS011;4049;49.468;11.200;2023-06-10T14:25:53;2.67;;;2.47;;
8007;SDS011;4049;49.468;11.200;2023-06-10T14:28:21;2.80;;;2.60;;
8007;SDS011;4049;49.468;11.200;2023-06-10T14:30:49;3.95;;;2.45;;
8007;SDS011;4049;49.468;11.200;2023-06-10T14:33:15;2.70;;;2.50;;
8007;SDS011;4049;49.468;11.200;2023-06-10T14:35:42;2.85;;;2.55;;
8007;SDS011;4049;49.468;11.200;2023-06-10T14:38:09;2.90;;;2.70;;
8007;SDS011;4049;49.468;11.200;2023-06-10T14:40:36;2.85;;;2.65;;
8007;SDS011;4049;49.468;11.200;2023-06-10T14:43:05;2.55;;;2.35;;
8007;SDS011;4049;49.468;11.200;2023-06-10T14:45:36;3.63;;;2.60;;
8007;SDS011;4049;49.468;11.200;2023-06-10T14:48:03;3.00;;;2.70;;
8007;SDS011;4049;49.468;11.200;2023-06-10T14:50:32;3.20;;;2.90;;
8007;SDS011;4049;49.468;11.200;2023-06-10T14:52:59;3.50;;;3.20;;
8007;SDS011;4049;49.468;11.200;2023-06-10T14:55:26;4.90;;;3.60;;
8007;SDS011;4049;49.468;11.200;2023-06-10T14:57:52;3.85;;;3.33;;
8007;SDS011;4049;49.468;11.200;2023-06-10T15:00:20;4.38;;;3.58;;
8007;SDS011;4049;49.468;11.200;2023-06-10T15:02:50;4.25;;;3.85;;
8007;SDS011;4049;49.468;11.200;2023-06-10T15:05:17;4.18;;;3.78;;
8007;SDS011;4049;49.468;11.200;2023-06-10T15:07:45;4.78;;;3.78;;
8007;SDS011;4049;49.468;11.200;2023-06-10T15:10:12;4.35;;;3.78;;
8007;SDS011;4049;49.468;11.200;2023-06-10T15:12:40;4.20;;;3.80;;
8007;SDS011;4049;49.468;11.200;2023-06-10T15:15:08;3.92;;;3.58;;
8007;SDS011;4049;49.468;11.200;2023-06-10T15:17:35;4.63;;;3.70;;